createdAt,value
2022-12-14T00:01:45.055Z,-1.94
2022-12-14T00:04:16.952Z,-2.32
2022-12-14T00:06:44.711Z,-2.42
2022-12-14T00:09:13.896Z,-2.36
2022-12-14T00:11:41.669Z,-2.15
2022-12-14T00:14:09.415Z,-2.48
2022-12-14T00:16:37.983Z,-2.10
2022-12-14T00:19:06.303Z,-2.11
2022-12-14T00:21:34.150Z,-2.33
2022-12-14T00:24:02.017Z,-2.19
2022-12-14T00:26:32.732Z,-2.59
2022-12-14T00:29:02.621Z,-2.58
2022-12-14T00:31:31.301Z,-2.37
2022-12-14T00:33:59.760Z,-2.33
2022-12-14T00:36:27.888Z,-2.83
2022-12-14T00:38:55.573Z,-2.60
2022-12-14T00:41:23.315Z,-2.66
2022-12-14T00:43:52.420Z,-2.66
2022-12-14T00:46:20.550Z,-3.03
2022-12-14T00:48:48.352Z,-2.63
2022-12-14T00:51:16.079Z,-2.68
2022-12-14T00:53:45.083Z,-2.48
2022-12-14T00:56:12.853Z,-3.05
2022-12-14T00:58:40.875Z,-3.08
2022-12-14T01:01:13.548Z,-2.76
2022-12-14T01:03:41.659Z,-3.13
2022-12-14T01:06:15.107Z,-3.01
2022-12-14T01:08:42.817Z,-2.86
2022-12-14T01:11:11.660Z,-2.64
2022-12-14T01:13:40.272Z,-2.99
2022-12-14T01:16:11.955Z,-2.92
2022-12-14T01:18:42.140Z,-3.31
2022-12-14T01:21:11.986Z,-3.02
2022-12-14T01:23:39.746Z,-3.20
2022-12-14T01:26:07.529Z,-2.95
2022-12-14T01:28:36.047Z,-3.26
2022-12-14T01:31:08.112Z,-2.98
2022-12-14T01:33:37.311Z,-3.14
2022-12-14T01:36:07.250Z,-3.34
2022-12-14T01:38:35.086Z,-3.25
2022-12-14T01:41:03.235Z,-3.41
2022-12-14T01:43:49.615Z,-3.15
2022-12-14T01:46:22.496Z,-3.46
2022-12-14T01:48:55.848Z,-3.43
2022-12-14T01:51:25.572Z,-3.16
2022-12-14T01:53:54.236Z,-3.25
2022-12-14T01:56:22.097Z,-3.28
2022-12-14T01:58:50.599Z,-3.54
2022-12-14T02:01:18.580Z,-3.25
2022-12-14T02:03:50.150Z,-3.66
2022-12-14T02:06:22.847Z,-3.53
2022-12-14T02:08:53.639Z,-3.85
2022-12-14T02:11:30.388Z,-3.92
2022-12-14T02:13:58.145Z,-3.84
2022-12-14T02:16:26.035Z,-3.90
2022-12-14T02:18:53.775Z,-4.02
2022-12-14T02:21:37.646Z,-4.11
2022-12-14T02:24:43.425Z,-3.75
2022-12-14T02:27:34.690Z,-3.81
2022-12-14T02:30:08.746Z,-3.83
2022-12-14T02:32:56.824Z,-3.88
2022-12-14T02:35:33.379Z,-3.64
2022-12-14T02:38:14.921Z,-3.80
2022-12-14T02:40:53.054Z,-4.00
2022-12-14T02:43:29.787Z,-3.60
2022-12-14T02:46:09.907Z,-3.20
2022-12-14T02:48:42.923Z,-3.50
2022-12-14T02:51:25.195Z,-3.13
2022-12-14T02:53:57.920Z,-3.20
2022-12-14T02:56:32.816Z,-3.42
2022-12-14T02:59:02.627Z,-3.39
2022-12-14T03:01:32.689Z,-3.55
2022-12-14T03:04:03.432Z,-3.35
2022-12-14T03:06:31.635Z,-3.39
2022-12-14T03:09:02.917Z,-3.51
2022-12-14T03:11:41.140Z,-3.59
2022-12-14T03:14:14.616Z,-3.40
2022-12-14T03:16:47.389Z,-3.37
2022-12-14T03:19:21.709Z,-3.81
2022-12-14T03:21:54.351Z,-3.75
2022-12-14T03:24:26.670Z,-3.52
2022-12-14T03:26:59.666Z,-3.70
2022-12-14T03:29:29.911Z,-4.26
2022-12-14T03:32:03.520Z,-3.81
2022-12-14T03:34:36.594Z,-4.20
2022-12-14T03:37:10.744Z,-3.77
2022-12-14T03:39:41.231Z,-4.01
2022-12-14T03:42:16.028Z,-4.12
2022-12-14T03:44:50.074Z,-4.23
2022-12-14T03:47:36.236Z,-3.95
2022-12-14T03:50:11.380Z,-4.12
2022-12-14T03:52:43.745Z,-4.25
2022-12-14T03:55:24.252Z,-4.12
2022-12-14T03:58:05.847Z,-4.22
2022-12-14T04:00:41.586Z,-4.52
2022-12-14T04:03:19.799Z,-4.32
2022-12-14T04:05:53.861Z,-4.75
2022-12-14T04:08:29.926Z,-4.85
2022-12-14T04:11:17.225Z,-4.80
2022-12-14T04:14:13.183Z,-4.85
2022-12-14T04:17:01.311Z,-4.56
2022-12-14T04:19:39.690Z,-4.75
2022-12-14T04:22:12.137Z,-4.52
2022-12-14T04:25:01.451Z,-4.68
2022-12-14T04:27:37.397Z,-4.71
2022-12-14T04:30:05.975Z,-4.77
2022-12-14T04:32:38.430Z,-4.40
2022-12-14T04:35:13.073Z,-4.79
2022-12-14T04:37:43.937Z,-5.18
2022-12-14T04:40:14.172Z,-4.83
2022-12-14T04:42:47.200Z,-4.82
2022-12-14T04:45:20.232Z,-4.95
2022-12-14T04:47:57.998Z,-4.61
2022-12-14T04:50:31.898Z,-4.80
2022-12-14T04:53:04.875Z,-4.95
2022-12-14T04:55:37.754Z,-4.55
2022-12-14T04:58:11.591Z,-4.82
2022-12-14T05:00:50.187Z,-4.83
2022-12-14T05:03:25.181Z,-4.65
2022-12-14T05:06:07.017Z,-4.87
2022-12-14T05:08:55.821Z,-5.07
2022-12-14T05:14:20.467Z,-4.94
2022-12-14T05:16:49.660Z,-4.79
2022-12-14T05:19:17.808Z,-4.67
2022-12-14T05:21:49.492Z,-4.70
2022-12-14T05:24:17.970Z,-4.37
2022-12-14T05:26:45.889Z,-4.48
2022-12-14T05:29:14.986Z,-4.83
2022-12-14T05:31:42.743Z,-4.61
2022-12-14T05:34:17.001Z,-4.90
2022-12-14T05:36:46.188Z,-4.58
2022-12-14T05:39:14.402Z,-4.93
2022-12-14T05:41:42.347Z,-4.54
2022-12-14T05:44:10.407Z,-4.86
2022-12-14T05:46:38.435Z,-4.87
2022-12-14T05:49:06.181Z,-4.35
2022-12-14T05:51:34.212Z,-4.64
2022-12-14T05:54:03.340Z,-4.79
2022-12-14T05:56:31.032Z,-4.15
2022-12-14T05:58:58.840Z,-4.72
2022-12-14T06:01:26.646Z,-4.74
2022-12-14T06:03:54.565Z,-4.46
2022-12-14T06:06:22.475Z,-4.51
2022-12-14T06:08:50.556Z,-4.57
2022-12-14T06:11:21.335Z,-4.62
2022-12-14T06:13:49.454Z,-4.69
2022-12-14T06:16:19.020Z,-4.74
2022-12-14T06:18:48.374Z,-4.90
2022-12-14T06:21:18.342Z,-4.90
2022-12-14T06:23:46.156Z,-4.84
2022-12-14T06:26:15.065Z,-4.64
2022-12-14T06:28:44.169Z,-4.52
2022-12-14T06:31:16.771Z,-5.03
2022-12-14T06:33:45.223Z,-4.21
2022-12-14T06:36:18.858Z,-4.47
2022-12-14T06:38:47.075Z,-5.10
2022-12-14T06:41:15.017Z,-4.74
2022-12-14T06:43:44.537Z,-4.94
2022-12-14T06:46:18.901Z,-5.24
2022-12-14T06:48:50.797Z,-4.99
2022-12-14T06:51:18.562Z,-5.04
2022-12-14T06:53:46.459Z,-5.31
2022-12-14T06:56:16.163Z,-5.01
2022-12-14T06:58:46.086Z,-5.16
2022-12-14T07:01:16.091Z,-5.28
2022-12-14T07:03:44.791Z,-5.21
2022-12-14T07:06:12.515Z,-5.29
2022-12-14T07:08:40.587Z,-5.31
2022-12-14T07:11:11.490Z,-5.16
2022-12-14T07:13:40.218Z,-5.28
2022-12-14T07:16:13.845Z,-5.03
2022-12-14T07:18:41.608Z,-5.18
2022-12-14T07:21:11.092Z,-5.16
2022-12-14T07:23:40.151Z,-5.08
2022-12-14T07:26:09.920Z,-4.88
2022-12-14T07:28:38.773Z,-5.02
2022-12-14T07:31:08.601Z,-4.69
2022-12-14T07:33:38.288Z,-4.87
2022-12-14T07:36:07.783Z,-4.71
2022-12-14T07:38:36.776Z,-4.79
2022-12-14T07:41:06.606Z,-4.87
2022-12-14T07:43:35.124Z,-5.07
2022-12-14T07:46:05.667Z,-4.51
2022-12-14T07:48:34.058Z,-4.46
2022-12-14T07:51:08.522Z,-4.71
2022-12-14T07:53:37.583Z,-4.54
2022-12-14T07:56:07.525Z,-4.53
2022-12-14T07:58:36.702Z,-4.12
2022-12-14T08:01:12.703Z,-4.05
2022-12-14T08:03:41.871Z,-4.29
2022-12-14T08:06:12.478Z,-4.38
2022-12-14T08:08:40.738Z,-4.01
2022-12-14T08:11:09.226Z,-3.55
2022-12-14T08:13:38.823Z,-2.87
2022-12-14T08:16:09.538Z,-3.47
2022-12-14T08:18:37.598Z,-2.83
2022-12-14T08:21:07.011Z,-2.70
2022-12-14T08:23:36.512Z,-2.16
2022-12-14T08:26:05.723Z,-2.14
2022-12-14T08:28:35.528Z,-2.29
2022-12-14T08:31:07.064Z,-1.16
2022-12-14T08:33:35.956Z,-2.21
2022-12-14T08:36:08.167Z,-1.41
2022-12-14T08:38:37.773Z,-1.97
2022-12-14T08:41:06.321Z,-1.92
2022-12-14T08:43:34.098Z,-2.00
2022-12-14T08:46:02.117Z,-1.98
2022-12-14T08:48:29.844Z,-1.80
2022-12-14T08:51:03.399Z,-1.82
2022-12-14T08:53:31.900Z,-1.65
2022-12-14T08:56:05.869Z,-1.79
2022-12-14T08:58:34.709Z,-1.47
2022-12-14T09:01:04.324Z,-1.06
2022-12-14T09:03:32.969Z,-0.90
2022-12-14T09:06:04.089Z,-1.54
2022-12-14T09:08:32.479Z,-2.10
2022-12-14T09:11:02.155Z,-1.29
2022-12-14T09:13:30.780Z,-1.22
2022-12-14T09:16:00.220Z,-0.74
2022-12-14T09:18:29.215Z,-1.69
2022-12-14T09:20:58.475Z,-0.44
2022-12-14T09:23:28.915Z,-0.71
2022-12-14T09:26:03.027Z,-0.27
2022-12-14T09:28:32.039Z,-0.14
2022-12-14T09:31:02.140Z,-1.83
2022-12-14T09:33:31.556Z,-1.07
2022-12-14T09:36:03.687Z,-0.65
2022-12-14T09:38:33.548Z,-0.91
2022-12-14T09:41:07.703Z,-0.01
2022-12-14T09:43:41.384Z,-0.46
2022-12-14T09:46:28.493Z,0.11
2022-12-14T09:48:58.370Z,0.36
2022-12-14T09:51:33.017Z,0.25
2022-12-14T09:54:06.169Z,0.18
2022-12-14T09:56:35.986Z,0.95
2022-12-14T09:59:04.566Z,0.91
2022-12-14T10:02:29.114Z,1.08
2022-12-14T10:04:52.911Z,1.14
2022-12-14T10:07:26.633Z,1.45
2022-12-14T10:10:02.773Z,1.79
2022-12-14T10:12:47.967Z,1.11
2022-12-14T10:15:25.896Z,1.17
2022-12-14T10:18:57.844Z,0.70
2022-12-14T10:21:13.797Z,1.74
2022-12-14T10:23:48.622Z,2.63
2022-12-14T10:26:20.461Z,1.98
2022-12-14T10:29:00.937Z,1.54
2022-12-14T10:31:36.027Z,2.30
2022-12-14T10:34:18.962Z,1.96
2022-12-14T10:36:54.156Z,1.98
2022-12-14T10:39:41.074Z,2.46
2022-12-14T10:42:17.831Z,1.58
2022-12-14T10:45:23.296Z,2.70
2022-12-14T10:47:47.738Z,3.18
2022-12-14T10:50:25.183Z,1.46
2022-12-14T10:52:54.877Z,1.79
2022-12-14T10:55:29.216Z,1.48
2022-12-14T10:57:56.973Z,1.10
2022-12-14T11:00:26.153Z,1.99
2022-12-14T11:02:56.664Z,2.74
2022-12-14T11:05:36.721Z,2.58
2022-12-14T11:08:06.689Z,2.71
2022-12-14T11:10:36.081Z,4.74
2022-12-14T11:13:08.051Z,2.78
2022-12-14T11:15:39.388Z,3.22
2022-12-14T11:18:28.636Z,2.92
2022-12-14T11:20:58.427Z,3.03
2022-12-14T11:23:27.933Z,2.66
2022-12-14T11:25:58.886Z,2.26
2022-12-14T11:28:36.650Z,2.48
2022-12-14T11:31:09.843Z,2.46
2022-12-14T11:33:40.675Z,3.46
2022-12-14T11:36:09.935Z,3.26
2022-12-14T11:38:37.804Z,1.66
2022-12-14T11:41:10.944Z,2.75
2022-12-14T11:43:40.057Z,3.66
2022-12-14T11:46:09.247Z,3.46
2022-12-14T11:48:39.378Z,2.61
2022-12-14T11:51:12.137Z,3.45
2022-12-14T11:53:40.397Z,3.20
2022-12-14T11:56:13.774Z,2.48
2022-12-14T11:58:50.093Z,4.53
2022-12-14T12:01:24.436Z,3.50
2022-12-14T12:03:56.913Z,3.53
2022-12-14T12:06:27.529Z,3.76
2022-12-14T12:08:57.736Z,3.54
2022-12-14T12:11:28.599Z,4.25
2022-12-14T12:14:01.587Z,3.48
2022-12-14T12:16:32.874Z,4.73
2022-12-14T12:19:11.803Z,5.05
2022-12-14T12:21:42.692Z,3.86
2022-12-14T12:24:18.343Z,4.46
2022-12-14T12:26:51.104Z,4.04
2022-12-14T12:29:25.234Z,3.40
2022-12-14T12:31:59.122Z,4.34
2022-12-14T12:34:31.406Z,3.84
2022-12-14T12:37:25.956Z,4.25
2022-12-14T12:39:58.108Z,5.08
2022-12-14T12:42:35.668Z,5.06
2022-12-14T12:45:09.744Z,3.87
2022-12-14T12:47:47.526Z,5.23
2022-12-14T12:50:18.257Z,4.58
2022-12-14T12:53:02.482Z,4.48
2022-12-14T12:55:33.456Z,4.64
2022-12-14T12:58:04.937Z,4.68
2022-12-14T13:00:33.769Z,3.98
2022-12-14T13:03:10.093Z,3.96
2022-12-14T13:05:47.447Z,5.00
2022-12-14T13:08:23.701Z,4.00
2022-12-14T13:11:25.736Z,3.93
2022-12-14T13:13:46.641Z,4.24
2022-12-14T13:16:23.020Z,4.39
2022-12-14T13:19:18.997Z,3.28
2022-12-14T13:21:51.834Z,3.51
2022-12-14T13:24:21.569Z,3.02
2022-12-14T13:27:17.519Z,3.01
2022-12-14T13:30:04.447Z,2.79
2022-12-14T13:32:46.290Z,3.52
2022-12-14T13:35:34.742Z,3.45
2022-12-14T13:38:33.722Z,3.24
2022-12-14T13:41:26.803Z,3.57
2022-12-14T13:44:17.156Z,3.54
2022-12-14T13:46:45.063Z,3.66
2022-12-14T13:49:21.468Z,4.02
2022-12-14T13:51:52.389Z,2.99
2022-12-14T13:54:27.617Z,2.96
2022-12-14T13:57:04.540Z,2.81
2022-12-14T13:59:36.267Z,2.22
2022-12-14T14:02:06.133Z,3.02
2022-12-14T14:04:35.699Z,2.76
2022-12-14T14:07:49.881Z,2.67
2022-12-14T14:10:31.491Z,2.55
2022-12-14T14:12:59.621Z,1.58
2022-12-14T14:15:52.006Z,1.74
2022-12-14T14:18:29.538Z,1.58
2022-12-14T14:21:30.024Z,1.39
2022-12-14T14:24:01.465Z,1.96
2022-12-14T14:26:31.275Z,1.48
2022-12-14T14:29:15.556Z,0.85
2022-12-14T14:31:52.598Z,0.98
2022-12-14T14:34:25.536Z,0.79
2022-12-14T14:36:53.476Z,0.46
2022-12-14T14:39:56.077Z,0.27
2022-12-14T14:42:26.620Z,-0.29
2022-12-14T14:44:57.894Z,-0.52
2022-12-14T14:47:31.069Z,-0.92
2022-12-14T14:50:01.445Z,-1.09
2022-12-14T14:53:02.842Z,-1.11
2022-12-14T14:56:12.832Z,-1.18
2022-12-14T14:58:41.890Z,-1.20
2022-12-14T15:01:19.451Z,-0.78
2022-12-14T15:03:53.143Z,-1.03
2022-12-14T15:06:24.801Z,-1.31
2022-12-14T15:08:59.699Z,-1.15
2022-12-14T15:11:36.278Z,-1.25
2022-12-14T15:14:14.940Z,-1.29
2022-12-14T15:16:45.039Z,-1.53
2022-12-14T15:19:25.530Z,-1.12
2022-12-14T15:21:56.525Z,-1.42
2022-12-14T15:24:26.107Z,-1.64
2022-12-14T15:26:55.286Z,-1.51
2022-12-14T15:29:28.014Z,-1.96
2022-12-14T15:32:00.501Z,-1.92
2022-12-14T15:34:29.062Z,-1.57
2022-12-14T15:36:57.597Z,-1.59
2022-12-14T15:39:39.802Z,-1.65
2022-12-14T15:42:15.003Z,-1.43
2022-12-14T15:44:50.450Z,-1.77
2022-12-14T15:47:26.622Z,-2.11
2022-12-14T15:50:00.659Z,-2.17
2022-12-14T15:52:31.778Z,-2.47
2022-12-14T15:55:00.754Z,-2.43
2022-12-14T15:57:29.893Z,-2.71
2022-12-14T15:59:58.993Z,-2.88
2022-12-14T16:02:31.487Z,-2.85
2022-12-14T16:05:03.894Z,-2.81
2022-12-14T16:07:37.522Z,-2.90
2022-12-14T16:10:15.854Z,-2.79
2022-12-14T16:12:47.830Z,-3.04
2022-12-14T16:15:19.996Z,-2.98
2022-12-14T16:17:47.953Z,-2.98
2022-12-14T16:20:22.532Z,-2.95
2022-12-14T16:23:22.779Z,-2.94
2022-12-14T16:25:52.256Z,-2.70
2022-12-14T16:28:27.044Z,-3.27
2022-12-14T16:30:59.346Z,-3.25
2022-12-14T16:33:29.479Z,-3.11
2022-12-14T16:36:03.761Z,-3.04
2022-12-14T16:38:32.336Z,-3.16
2022-12-14T16:41:02.816Z,-3.05
2022-12-14T16:43:35.334Z,-3.18
2022-12-14T16:46:20.880Z,-3.38
2022-12-14T16:49:23.176Z,-3.51
2022-12-14T16:52:07.254Z,-3.48
2022-12-14T16:54:35.883Z,-3.73
2022-12-14T16:57:06.690Z,-3.76
2022-12-14T16:59:42.124Z,-3.61
2022-12-14T17:02:29.660Z,-3.61
2022-12-14T17:04:59.502Z,-3.63
2022-12-14T17:07:29.671Z,-3.64
2022-12-14T17:09:57.426Z,-3.76
2022-12-14T17:12:27.135Z,-3.72
2022-12-14T17:14:56.286Z,-3.86
2022-12-14T17:17:33.861Z,-3.81
2022-12-14T17:20:02.648Z,-3.73
2022-12-14T17:22:34.088Z,-4.02
2022-12-14T17:25:02.539Z,-3.80
2022-12-14T17:27:30.510Z,-3.38
2022-12-14T17:29:59.600Z,-3.85
2022-12-14T17:32:30.172Z,-3.70
2022-12-14T17:34:58.157Z,-3.72
2022-12-14T17:37:32.449Z,-3.69
2022-12-14T17:40:04.017Z,-3.47
2022-12-14T17:42:31.844Z,-3.62
2022-12-14T17:45:01.673Z,-3.75
2022-12-14T17:47:29.493Z,-3.61
2022-12-14T17:49:57.273Z,-3.17
2022-12-14T17:52:28.185Z,-3.44
2022-12-14T17:54:56.138Z,-3.16
2022-12-14T17:57:26.207Z,-3.71
2022-12-14T18:00:14.246Z,-3.74
2022-12-14T18:02:45.438Z,-3.47
2022-12-14T18:05:19.595Z,-3.70
2022-12-14T18:07:49.884Z,-3.42
2022-12-14T18:10:19.407Z,-3.46
2022-12-14T18:12:57.424Z,-3.50
2022-12-14T18:15:27.560Z,-3.12
2022-12-14T18:17:56.846Z,-3.30
2022-12-14T18:20:25.329Z,-3.35
2022-12-14T18:22:53.355Z,-2.89
2022-12-14T18:25:31.655Z,-3.58
2022-12-14T18:28:00.608Z,-3.60
2022-12-14T18:30:34.885Z,-3.63
2022-12-14T18:33:07.976Z,-3.49
2022-12-14T18:35:37.103Z,-3.42
2022-12-14T18:38:04.830Z,-3.96
2022-12-14T18:40:32.600Z,-3.88
2022-12-14T18:43:00.471Z,-4.05
2022-12-14T18:45:30.248Z,-4.13
2022-12-14T18:47:59.166Z,-3.66
2022-12-14T18:50:29.110Z,-3.75
2022-12-14T18:52:57.786Z,-4.07
2022-12-14T18:55:27.500Z,-4.01
2022-12-14T18:57:57.150Z,-4.01
2022-12-14T19:00:26.689Z,-4.11
2022-12-14T19:02:58.167Z,-4.10
2022-12-14T19:05:28.010Z,-4.36
2022-12-14T19:07:57.643Z,-4.50
2022-12-14T19:10:27.491Z,-4.08
2022-12-14T19:12:55.593Z,-4.12
2022-12-14T19:15:25.249Z,-4.27
2022-12-14T19:17:53.928Z,-4.23
2022-12-14T19:20:22.702Z,-4.09
2022-12-14T19:22:52.020Z,-4.58
2022-12-14T19:25:21.027Z,-4.20
2022-12-14T19:30:37.343Z,-4.22
2022-12-14T19:33:05.128Z,-4.37
2022-12-14T19:35:32.953Z,-4.51
2022-12-14T19:38:02.068Z,-4.51
2022-12-14T19:40:30.816Z,-4.60
2022-12-14T19:42:59.362Z,-4.24
2022-12-14T19:45:27.129Z,-4.42
2022-12-14T19:47:54.879Z,-4.23
2022-12-14T19:50:22.638Z,-4.18
2022-12-14T19:52:52.457Z,-4.65
2022-12-14T19:55:21.675Z,-4.58
2022-12-14T19:57:49.441Z,-4.52
2022-12-14T20:00:17.470Z,-4.47
2022-12-14T20:02:45.342Z,-4.66
2022-12-14T20:05:17.816Z,-4.70
2022-12-14T20:07:45.623Z,-4.56
2022-12-14T20:10:13.346Z,-4.43
2022-12-14T20:12:43.135Z,-4.64
2022-12-14T20:15:11.908Z,-4.69
2022-12-14T20:17:39.634Z,-4.77
2022-12-14T20:20:08.525Z,-4.61
2022-12-14T20:22:36.319Z,-5.10
2022-12-14T20:25:04.067Z,-4.83
2022-12-14T20:27:34.820Z,-5.03
2022-12-14T20:30:09.895Z,-4.99
2022-12-14T20:32:37.706Z,-5.20
2022-12-14T20:35:06.368Z,-4.84
2022-12-14T20:37:34.128Z,-4.91
2022-12-14T20:40:01.851Z,-5.02
2022-12-14T20:42:29.599Z,-5.14
2022-12-14T20:44:58.181Z,-5.00
2022-12-14T20:47:29.464Z,-5.12
2022-12-14T20:49:57.214Z,-4.98
2022-12-14T20:52:25.017Z,-5.14
2022-12-14T20:54:53.558Z,-4.86
2022-12-14T20:57:21.415Z,-4.86
2022-12-14T20:59:49.629Z,-5.20
2022-12-14T21:02:18.843Z,-4.86
2022-12-14T21:04:48.140Z,-4.67
2022-12-14T21:07:16.000Z,-4.45
2022-12-14T21:09:44.089Z,-4.63
2022-12-14T21:12:23.740Z,-4.77
2022-12-14T21:14:53.126Z,-4.61
2022-12-14T21:17:22.474Z,-4.86
2022-12-14T21:19:51.735Z,-4.57
2022-12-14T21:22:22.082Z,-4.47
2022-12-14T21:25:03.112Z,-4.68
2022-12-14T21:27:34.558Z,-4.76
2022-12-14T21:30:02.301Z,-5.07
2022-12-14T21:32:30.056Z,-4.97
2022-12-14T21:34:59.172Z,-4.77
2022-12-14T21:37:27.091Z,-4.78
2022-12-14T21:39:55.856Z,-4.96
2022-12-14T21:42:23.511Z,-4.77
2022-12-14T21:44:52.814Z,-5.00
2022-12-14T21:47:22.571Z,-4.91
2022-12-14T21:49:50.367Z,-4.98
2022-12-14T21:52:21.473Z,-4.95
2022-12-14T21:54:49.689Z,-4.71
2022-12-14T21:57:36.756Z,-4.75
2022-12-14T22:00:05.816Z,-5.13
2022-12-14T22:02:33.665Z,-5.09
2022-12-14T22:05:01.641Z,-5.37
2022-12-14T22:07:33.381Z,-4.95
2022-12-14T22:10:01.226Z,-5.15
2022-12-14T22:12:29.173Z,-4.84
2022-12-14T22:14:56.917Z,-4.87
2022-12-14T22:17:24.655Z,-5.02
2022-12-14T22:19:54.311Z,-5.03
2022-12-14T22:22:22.221Z,-4.98
2022-12-14T22:24:52.013Z,-5.21
2022-12-14T22:27:20.451Z,-5.01
2022-12-14T22:29:48.190Z,-4.83
2022-12-14T22:32:17.372Z,-5.02
2022-12-14T22:34:45.178Z,-4.58
2022-12-14T22:37:14.690Z,-5.08
2022-12-14T22:39:42.699Z,-5.10
2022-12-14T22:42:11.817Z,-5.46
2022-12-14T22:44:40.259Z,-5.04
2022-12-14T22:47:07.996Z,-5.18
2022-12-14T22:49:35.719Z,-5.45
2022-12-14T22:52:03.443Z,-5.59
2022-12-14T22:54:31.606Z,-5.45
2022-12-14T22:57:03.806Z,-5.66
2022-12-14T22:59:36.727Z,-5.03
2022-12-14T23:02:05.221Z,-5.31
2022-12-14T23:04:33.127Z,-5.17
2022-12-14T23:07:00.985Z,-5.18
2022-12-14T23:09:46.155Z,-5.26
2022-12-14T23:12:31.391Z,-5.16
2022-12-14T23:15:18.130Z,-5.01
2022-12-14T23:18:03.395Z,-4.78
2022-12-14T23:20:48.829Z,-4.49
2022-12-14T23:23:34.550Z,-4.97
2022-12-14T23:26:20.714Z,-5.24
2022-12-14T23:29:06.085Z,-5.17
2022-12-14T23:31:52.571Z,-5.30
2022-12-14T23:34:37.861Z,-5.46
2022-12-14T23:37:23.311Z,-5.54
2022-12-14T23:40:08.654Z,-5.52
2022-12-14T23:42:53.929Z,-5.81
2022-12-14T23:45:39.311Z,-5.57
2022-12-14T23:48:26.405Z,-5.49
2022-12-14T23:51:11.703Z,-5.42
2022-12-14T23:53:56.941Z,-5.53
2022-12-14T23:56:42.248Z,-5.75
2022-12-14T23:59:31.846Z,-5.94
